Terminal Forecast for MSP Airport


000
FTUS43 KMPX 031700
TAFMSP
TAF
KMSP 031722Z 0318/0424 17007KT P6SM VCSH SCT040 OVC100
     FM032100 18007KT P6SM -SHRA BKN025 OVC040
     FM040100 23007KT 6SM -RA BKN022 OVC035
     FM040500 29012KT P6SM BKN040
     FM041000 28009KT P6SM SCT030
     FM041500 28012G21KT P6SM SCT030=

CCFP Forecasts (click for larger image)

 



USA.gov is the U.S. government's official web portal to all federal, state and local government web resources and services.